H. Lee White — WZD2465 — position and weather

sailwx.info

Track history (hours):
 
Tides and Currents Weather Stations Pressure Air Temp Water Temp Dewpoint Dewpoint Depression Visibility Wind Speed Wind Dir Waves Ship Positions

H. Lee White

Owner: AMERICAN STEAMSHIP COMPANY, WILLIAMSVILLE, NY. More information available from US FCC via Universal Licensing System and Coast Guard Vessel Documentation Center.

Last reported at 2016-May-06 12:33 UTC. Time now 2016-May-06 16:55 UTC.
Position N 46°41' W 084°49'.

Length 214 m; draft 7.3 m.

Type: Cargo ship. MMSI: 366938770.

Date/timePositionNaut miles runAvg speedWind from/ knotsBaromVisibWave heightAir tempDewpointWater temp
2016-May-06 12:33N 46°41' W 084°49'1211.3
2016-May-06 11:32N 46°50' W 085°01'1010.2
2016-May-06 10:33N 46°51' W 085°15'1212.2
2016-May-06 09:33N 46°49' W 085°33'1212.1
2016-May-06 08:32N 46°48' W 085°51'107 2.8
2016-May-04 18:00N 48°00' W 087°48'105 6.6 010 / 111013.2 2.2 7.2 2.2
2016-May-04 02:00N 47°30' W 090°18'62 8.3 010 / 26 1.0 7.7
2016-May-03 18:32N 46°58' W 091°36'1212.5
2016-May-03 17:32N 46°52' W 091°52'1111.3
2016-May-03 16:33N 46°47' W 092°06'2 2.1
2016-May-03 15:33N 46°45' W 092°07'0 0.0
2016-May-03 14:33N 46°45' W 092°07'0 0.0
2016-May-03 13:33N 46°45' W 092°07'0 0.0
2016-May-03 12:33N 46°45' W 092°07'0 0.0
2016-May-03 11:33N 46°45' W 092°07'0 0.0
2016-May-03 10:33N 46°45' W 092°07'2 2.2
2016-May-03 09:34N 46°47' W 092°06'10 9.8
2016-May-03 08:34N 46°51' W 091°53'1212.5
2016-May-03 07:34N 46°55' W 091°36'1312.6
2016-May-03 06:33N 46°60' W 091°18'2213.8
2016-May-03 05:00N 47°06' W 090°48'29 9.7 988.8 5.4 8.0 -1.6
2016-May-03 02:00N 47°12' W 090°06'   160 / 12
2016-Apr-30 01:00N 43°48' W 082°18'   010 / 8 3.8
2016-Apr-27 01:00N 43°36' W 082°12'   010 / 11 0.5 3.3
Track history (hours):
 
Tides and Currents Weather Stations Pressure Air Temp Water Temp Dewpoint Dewpoint Depression Visibility Wind Speed Wind Dir Waves Ship Positions

H. Lee White

Owner: AMERICAN STEAMSHIP COMPANY, WILLIAMSVILLE, NY. More information available from US FCC via Universal Licensing System and Coast Guard Vessel Documentation Center.

Last reported at 2016-May-06 12:33 UTC. Time now 2016-May-06 16:55 UTC.
Position N 46°41' W 084°49'.

Length 214 m; draft 7.3 m.

Type: Cargo ship. MMSI: 366938770.

Date/timePositionNaut miles runAvg speedWind from/ knotsBaromVisibWave heightAir tempDewpointWater temp
2016-May-06 12:33N 46°41' W 084°49'1211.3
2016-May-06 11:32N 46°50' W 085°01'1010.2
2016-May-06 10:33N 46°51' W 085°15'1212.2
2016-May-06 09:33N 46°49' W 085°33'1212.1
2016-May-06 08:32N 46°48' W 085°51'107 2.8
2016-May-04 18:00N 48°00' W 087°48'105 6.6 010 / 111013.2 2.2 7.2 2.2
2016-May-04 02:00N 47°30' W 090°18'62 8.3 010 / 26 1.0 7.7
2016-May-03 18:32N 46°58' W 091°36'1212.5
2016-May-03 17:32N 46°52' W 091°52'1111.3
2016-May-03 16:33N 46°47' W 092°06'2 2.1
2016-May-03 15:33N 46°45' W 092°07'0 0.0
2016-May-03 14:33N 46°45' W 092°07'0 0.0
2016-May-03 13:33N 46°45' W 092°07'0 0.0
2016-May-03 12:33N 46°45' W 092°07'0 0.0
2016-May-03 11:33N 46°45' W 092°07'0 0.0
2016-May-03 10:33N 46°45' W 092°07'2 2.2
2016-May-03 09:34N 46°47' W 092°06'10 9.8
2016-May-03 08:34N 46°51' W 091°53'1212.5
2016-May-03 07:34N 46°55' W 091°36'1312.6
2016-May-03 06:33N 46°60' W 091°18'2213.8
2016-May-03 05:00N 47°06' W 090°48'29 9.7 988.8 5.4 8.0 -1.6
2016-May-03 02:00N 47°12' W 090°06'   160 / 12
2016-Apr-30 01:00N 43°48' W 082°18'   010 / 8 3.8
2016-Apr-27 01:00N 43°36' W 082°12'   010 / 11 0.5 3.3

Dump ship's entire track history